Shoyomaru — JNWJ — position and weather

sailwx.info

Track history (hours):
 
Tides and Currents Weather Stations Pressure Air Temp Water Temp Dewpoint Dewpoint Depression Visibility Wind Speed Wind Dir Waves Ship Positions

Shoyomaru

Last reported at 2017-Oct-27 02:58 UTC. Time now 2017-Nov-19 06:33 UTC.
Position N 34°36' E 134°55'.
Warning: this ship's position is 23 days out of date.

Length 89 m; draft 5.5 m.

Type: Tanker. MMSI: 432464000.

Date/timePositionNaut miles runAvg speedWind from/ knotsBaromVisibWave heightAir tempDewpointWater temp
2017-Oct-27 02:58N 34°36' E 134°55'613.7
2017-Oct-27 02:30N 34°36' E 135°03'611.3
2017-Oct-27 01:59N 34°31' E 135°04'813.2
2017-Oct-27 01:24N 34°23' E 135°01'712.8
2017-Oct-27 00:49N 34°16' E 134°59'411.9
2017-Oct-27 00:29N 34°12' E 134°59'611.9
2017-Oct-26 23:59N 34°06' E 134°59'  
2017-Oct-20 17:20N 34°33' E 134°46'610.9
2017-Oct-20 16:46N 34°35' E 134°53'3 9.6
2017-Oct-20 16:24N 34°37' E 134°57'4 9.8
2017-Oct-20 16:00N 34°37' E 135°01'5 9.2
2017-Oct-20 15:30N 34°34' E 135°05'612.1
2017-Oct-20 15:00N 34°28' E 135°03'711.8
2017-Oct-20 14:23N 34°21' E 135°01'1112.0
2017-Oct-20 13:30N 34°11' E 134°59'612.3
2017-Oct-20 13:00N 34°05' E 134°60'  
Track history (hours):
 
Tides and Currents Weather Stations Pressure Air Temp Water Temp Dewpoint Dewpoint Depression Visibility Wind Speed Wind Dir Waves Ship Positions

Shoyomaru

Last reported at 2017-Oct-27 02:58 UTC. Time now 2017-Nov-19 06:33 UTC.
Position N 34°36' E 134°55'.
Warning: this ship's position is 23 days out of date.

Length 89 m; draft 5.5 m.

Type: Tanker. MMSI: 432464000.

Date/timePositionNaut miles runAvg speedWind from/ knotsBaromVisibWave heightAir tempDewpointWater temp
2017-Oct-27 02:58N 34°36' E 134°55'613.7
2017-Oct-27 02:30N 34°36' E 135°03'611.3
2017-Oct-27 01:59N 34°31' E 135°04'813.2
2017-Oct-27 01:24N 34°23' E 135°01'712.8
2017-Oct-27 00:49N 34°16' E 134°59'411.9
2017-Oct-27 00:29N 34°12' E 134°59'611.9
2017-Oct-26 23:59N 34°06' E 134°59'  
2017-Oct-20 17:20N 34°33' E 134°46'610.9
2017-Oct-20 16:46N 34°35' E 134°53'3 9.6
2017-Oct-20 16:24N 34°37' E 134°57'4 9.8
2017-Oct-20 16:00N 34°37' E 135°01'5 9.2
2017-Oct-20 15:30N 34°34' E 135°05'612.1
2017-Oct-20 15:00N 34°28' E 135°03'711.8
2017-Oct-20 14:23N 34°21' E 135°01'1112.0
2017-Oct-20 13:30N 34°11' E 134°59'612.3
2017-Oct-20 13:00N 34°05' E 134°60'  

Dump ship's entire track history